Time;durP1;ratioP1;P1;durP2;ratioP2;P2;SDS_P1;SDS_P2;PMS_P1;PMS_P2;Temp;Humidity;BMP_temperature;BMP_pressure;BME280_temperature;BME280_humidity;BME280_pressure;Samples;Min_cycle;Max_cycle;Signal;HPM_P1;HPM_P2
2022/01/09 00:00:49;;;;;;;24.35;10.93;;;;;;;-4.43;82.56;98087.91;4485678;31;20100;-74
2022/01/09 00:03:17;;;;;;;21.90;9.98;;;;;;;-4.33;82.31;98086.63;4485494;31;20116;-74
2022/01/09 00:05:44;;;;;;;23.40;9.90;;;;;;;-4.39;82.48;98081.75;4485611;31;20494;-74
2022/01/09 00:08:11;;;;;;;27.30;10.27;;;;;;;-4.44;82.89;98086.22;4485295;31;20096;-74
2022/01/09 00:10:45;;;;;;;26.12;10.60;;;;;;;-4.45;82.98;98082.84;4485672;31;20100;-74
2022/01/09 00:13:13;;;;;;;31.20;12.05;;;;;;;-4.52;83.39;98083.97;4485444;31;20084;-74
2022/01/09 00:15:41;;;;;;;27.10;10.00;;;;;;;-4.52;83.30;98081.41;4485500;31;20093;-74
2022/01/09 00:18:08;;;;;;;29.58;12.00;;;;;;;-4.63;83.64;98084.38;4485392;31;20093;-74
2022/01/09 00:20:35;;;;;;;21.75;10.05;;;;;;;-4.70;83.91;98078.66;4485449;31;20454;-74
2022/01/09 00:23:02;;;;;;;29.08;11.95;;;;;;;-4.65;83.90;98063.16;4485462;31;20115;-74
2022/01/09 00:25:30;;;;;;;27.17;11.15;;;;;;;-4.60;84.05;98062.97;4485452;31;20110;-74
2022/01/09 00:27:57;;;;;;;28.12;10.88;;;;;;;-4.65;84.11;98055.47;4485250;31;20123;-74
2022/01/09 00:30:26;;;;;;;29.95;10.98;;;;;;;-4.60;83.96;98053.59;4484408;32;20458;-74
2022/01/09 00:32:53;;;;;;;20.60;9.32;;;;;;;-4.61;84.03;98051.09;4485322;31;20119;-74
2022/01/09 00:35:21;;;;;;;23.90;11.00;;;;;;;-4.56;84.32;98044.91;4485610;31;20092;-74
2022/01/09 00:37:48;;;;;;;29.35;10.68;;;;;;;-4.38;83.60;98051.00;4485149;31;20198;-74
2022/01/09 00:40:16;;;;;;;29.80;11.77;;;;;;;-4.47;84.21;98048.81;4485375;31;21014;-74
2022/01/09 00:42:44;;;;;;;34.60;12.00;;;;;;;-4.36;84.23;98044.13;4485297;31;20091;-74
2022/01/09 00:45:12;;;;;;;30.17;12.10;;;;;;;-4.33;84.48;98041.44;4485351;32;20116;-74
2022/01/09 00:47:40;;;;;;;26.40;10.75;;;;;;;-4.09;83.70;98043.88;4485458;31;20104;-74
2022/01/09 00:50:09;;;;;;;29.80;11.95;;;;;;;-4.04;83.50;98041.13;4485020;31;20105;-74
2022/01/09 00:52:36;;;;;;;26.20;11.45;;;;;;;-3.92;83.02;98036.31;4485154;31;20108;-74
2022/01/09 00:55:05;;;;;;;29.95;11.63;;;;;;;-3.92;83.26;98030.41;4485221;31;20552;-74
2022/01/09 00:57:33;;;;;;;34.03;11.73;;;;;;;-3.89;83.34;98025.16;4485587;31;20386;-74
2022/01/09 01:00:00;;;;;;;28.92;10.73;;;;;;;-3.92;83.48;98020.97;4485534;31;20089;-74
2022/01/09 01:02:27;;;;;;;28.42;11.65;;;;;;;-3.90;83.24;98015.78;4485420;31;20114;-74
2022/01/09 01:04:55;;;;;;;33.70;12.65;;;;;;;-3.86;82.62;98009.66;4485109;31;20562;-74
2022/01/09 01:07:23;;;;;;;24.65;11.30;;;;;;;-3.85;82.42;98007.91;4485303;31;20092;-74
2022/01/09 01:09:50;;;;;;;29.15;12.70;;;;;;;-3.73;81.73;98004.81;4485077;31;20096;-74
2022/01/09 01:12:17;;;;;;;23.85;10.30;;;;;;;-3.76;81.72;97999.84;4484248;31;20092;-74
2022/01/09 01:14:45;;;;;;;22.92;10.55;;;;;;;-3.82;81.52;97990.69;4485109;31;20167;-74
2022/01/09 01:17:13;;;;;;;26.70;10.18;;;;;;;-3.88;81.76;97988.41;4485066;32;20154;-74
2022/01/09 01:19:41;;;;;;;26.12;12.18;;;;;;;-3.95;82.05;97989.59;4484919;31;20108;-74
2022/01/09 01:22:27;;;;;;;30.10;11.65;;;;;;;-4.07;82.20;97990.09;4485000;31;20522;-74
2022/01/09 01:24:56;;;;;;;26.98;10.50;;;;;;;-4.22;82.49;97977.06;4484871;31;20084;-74
2022/01/09 01:27:24;;;;;;;30.95;11.45;;;;;;;-4.30;82.85;97979.09;4485011;31;20123;-74
2022/01/09 01:29:51;;;;;;;28.48;10.95;;;;;;;-4.45;83.09;97965.25;4484888;31;20104;-74
2022/01/09 01:32:18;;;;;;;21.20;10.57;;;;;;;-4.60;83.45;97966.72;4484981;31;20537;-74
2022/01/09 01:34:46;;;;;;;29.00;11.52;;;;;;;-4.70;83.98;97973.06;4484655;31;20092;-74
2022/01/09 01:37:14;;;;;;;23.98;9.65;;;;;;;-4.76;84.29;97965.66;4484935;31;20176;-74
2022/01/09 01:39:41;;;;;;;28.17;10.57;;;;;;;-4.91;84.65;97962.81;4484669;31;20080;-74
2022/01/09 01:42:08;;;;;;;23.33;10.32;;;;;;;-5.02;85.30;97957.31;4485042;31;20166;-74
2022/01/09 01:44:45;;;;;;;23.02;10.55;;;;;;;-5.13;85.81;97952.63;4484430;31;20104;-74
2022/01/09 01:47:14;;;;;;;28.58;11.00;;;;;;;-5.19;86.12;97953.69;4484840;31;20127;-74
2022/01/09 01:49:41;;;;;;;28.23;11.48;;;;;;;-5.25;86.32;97951.37;4484383;32;20184;-74
2022/01/09 01:52:09;;;;;;;24.98;10.65;;;;;;;-5.35;86.68;97944.94;4484757;31;20115;-74
2022/01/09 01:54:39;;;;;;;26.30;11.68;;;;;;;-5.43;87.20;97950.34;4484331;31;20393;-74
2022/01/09 01:57:07;;;;;;;25.77;10.93;;;;;;;-5.37;87.41;97954.41;4484742;32;20584;-74
2022/01/09 01:59:34;;;;;;;28.45;12.77;;;;;;;-5.33;87.13;97942.34;4484470;31;20119;-74
2022/01/09 02:02:02;;;;;;;25.37;11.63;;;;;;;-5.54;87.36;97942.25;4484499;31;20650;-75
2022/01/09 02:04:30;;;;;;;26.87;11.18;;;;;;;-5.73;88.54;97931.91;4484502;31;20172;-74
2022/01/09 02:06:57;;;;;;;25.73;11.57;;;;;;;-5.80;88.72;97936.37;4484531;31;20088;-75
2022/01/09 02:09:25;;;;;;;25.40;11.48;;;;;;;-5.78;88.87;97937.19;4483185;32;20430;-75
2022/01/09 02:11:52;;;;;;;28.62;11.48;;;;;;;-5.93;89.00;97922.44;4484476;31;20159;-74
2022/01/09 02:14:19;;;;;;;33.63;12.37;;;;;;;-6.05;90.95;97920.37;4484197;31;20081;-74
2022/01/09 02:16:48;;;;;;;27.25;11.90;;;;;;;-6.09;91.46;97923.00;4484358;31;20433;-74
2022/01/09 02:19:16;;;;;;;33.30;13.23;;;;;;;-6.13;91.29;97924.03;4482784;32;20208;-74
2022/01/09 02:21:44;;;;;;;32.42;13.00;;;;;;;-6.21;91.61;97920.06;4484308;31;20130;-74
2022/01/09 02:24:13;;;;;;;32.40;12.75;;;;;;;-6.30;92.80;97911.03;4486260;31;20081;-74
2022/01/09 02:26:40;;;;;;;32.25;12.63;;;;;;;-6.35;93.03;97911.19;4486314;31;20097;-74
2022/01/09 02:29:07;;;;;;;38.65;15.05;;;;;;;-6.35;93.07;97911.19;4486291;31;20476;-74
2022/01/09 02:31:35;;;;;;;39.90;14.45;;;;;;;-6.33;93.16;97906.84;4486068;31;20421;-74
2022/01/09 02:34:02;;;;;;;33.55;14.87;;;;;;;-6.40;93.23;97912.22;4486302;31;20097;-74
2022/01/09 02:36:30;;;;;;;40.97;15.77;;;;;;;-6.42;93.70;97910.59;4486244;31;20123;-75
2022/01/09 02:38:57;;;;;;;35.85;15.20;;;;;;;-6.44;93.76;97899.59;4485919;31;20092;-75
2022/01/09 02:41:24;;;;;;;34.78;14.23;;;;;;;-6.51;94.38;97900.72;4486111;31;20183;-75
2022/01/09 02:43:51;;;;;;;37.45;15.18;;;;;;;-6.55;94.65;97898.31;4486181;31;20085;-75
2022/01/09 02:48:52;;;;;;;40.35;16.40;;;;;;;-6.63;94.92;97903.66;4486071;31;20084;-74
2022/01/09 02:51:19;;;;;;;44.05;16.67;;;;;;;-6.63;94.91;97894.31;4486082;31;20127;-75
2022/01/09 02:54:12;;;;;;;36.85;15.13;;;;;;;-6.65;94.88;97890.97;4486230;31;20172;-74
2022/01/09 02:56:38;;;;;;;43.58;16.15;;;;;;;-6.69;94.90;97889.44;4486304;31;20145;-75
2022/01/09 02:59:05;;;;;;;39.55;16.27;;;;;;;-6.71;95.01;97891.19;4486234;31;20092;-74
2022/01/09 03:01:32;;;;;;;40.60;16.45;;;;;;;-6.65;94.90;97890.97;4484581;32;20092;-74
2022/01/09 03:03:59;;;;;;;37.53;16.58;;;;;;;-6.70;94.44;97887.75;4486299;31;20087;-75
2022/01/09 03:06:27;;;;;;;43.13;15.40;;;;;;;-6.58;93.49;97880.59;4484922;32;20100;-74
2022/01/09 03:08:59;;;;;;;34.25;13.98;;;;;;;-6.75;93.80;97881.16;4486056;31;20123;-75
2022/01/09 03:11:27;;;;;;;32.67;15.02;;;;;;;-6.79;94.17;97872.78;4485780;31;20093;-74
2022/01/09 03:13:54;;;;;;;35.65;14.20;;;;;;;-6.97;95.11;97874.22;4485995;31;20092;-75
2022/01/09 03:16:21;;;;;;;31.87;12.70;;;;;;;-7.05;95.68;97871.94;4485965;31;20092;-75
2022/01/09 03:18:48;;;;;;;32.95;12.27;;;;;;;-7.01;95.66;97865.88;4485807;31;20584;-75
2022/01/09 03:21:15;;;;;;;33.50;14.30;;;;;;;-7.14;94.62;97867.16;4485680;31;20088;-74
2022/01/09 03:23:42;;;;;;;28.83;13.82;;;;;;;-7.32;95.86;97863.47;4486005;31;20111;-74
2022/01/09 03:26:10;;;;;;;33.40;12.95;;;;;;;-7.36;96.62;97852.59;4485748;31;20497;-74
2022/01/09 03:28:37;;;;;;;26.15;12.25;;;;;;;-7.36;96.64;97859.37;4486051;31;20119;-75
2022/01/09 03:31:04;;;;;;;39.05;14.85;;;;;;;-7.43;96.55;97852.78;4485598;31;20437;-74
2022/01/09 03:33:31;;;;;;;36.80;15.48;;;;;;;-7.41;96.88;97859.50;4485423;31;20126;-74
2022/01/09 03:35:58;;;;;;;45.15;16.87;;;;;;;-7.18;97.33;97860.50;4485685;31;20149;-75
2022/01/09 03:38:25;;;;;;;35.47;13.85;;;;;;;-7.08;98.42;97859.31;4485851;31;20123;-75
2022/01/09 03:40:53;;;;;;;38.58;16.10;;;;;;;-7.12;97.57;97862.84;4485747;31;20626;-74
2022/01/09 03:43:20;;;;;;;26.62;12.85;;;;;;;-7.13;97.36;97868.78;4486039;31;20125;-75
2022/01/09 03:45:47;;;;;;;36.85;14.55;;;;;;;-7.21;96.36;97866.50;4485570;31;20124;-75
2022/01/09 03:48:14;;;;;;;33.33;13.52;;;;;;;-7.22;96.73;97869.09;4485798;31;20100;-75
2022/01/09 03:50:49;;;;;;;36.80;14.52;;;;;;;-7.30;96.67;97866.78;4485515;31;20115;-75
2022/01/09 03:53:16;;;;;;;41.67;14.38;;;;;;;-7.40;96.71;97860.34;4485679;32;20149;-75
2022/01/09 03:55:43;;;;;;;33.75;13.65;;;;;;;-7.27;96.99;97864.16;4485678;31;20572;-75
2022/01/09 03:58:10;;;;;;;36.72;13.60;;;;;;;-7.41;97.11;97853.59;4485550;31;20092;-75
2022/01/09 04:00:38;;;;;;;26.75;11.45;;;;;;;-7.53;98.43;97853.09;4485382;31;20120;-75
2022/01/09 04:03:06;;;;;;;34.85;12.77;;;;;;;-7.61;99.14;97846.59;4485558;31;20096;-75
2022/01/09 04:05:33;;;;;;;28.67;12.35;;;;;;;-7.61;99.35;97842.34;4485690;31;20135;-75
2022/01/09 04:08:00;;;;;;;29.00;12.15;;;;;;;-7.61;99.41;97842.34;4486036;31;20157;-75
2022/01/09 04:10:43;;;;;;;30.52;12.20;;;;;;;-7.54;99.07;97822.63;4485458;31;20088;-75
2022/01/09 04:13:14;;;;;;;31.45;12.88;;;;;;;-7.62;98.61;97815.22;4485616;31;20076;-75
2022/01/09 04:15:49;;;;;;;34.58;13.50;;;;;;;-7.52;98.73;97823.41;4485483;31;20093;-75
2022/01/09 04:18:17;;;;;;;30.35;12.93;;;;;;;-7.39;97.57;97827.22;4485646;31;20119;-75
2022/01/09 04:20:45;;;;;;;30.95;12.07;;;;;;;-7.38;98.02;97817.88;4485408;31;20155;-75
2022/01/09 04:23:12;;;;;;;31.55;12.40;;;;;;;-7.36;97.94;97821.19;4485639;31;20096;-75
2022/01/09 04:25:40;;;;;;;26.30;11.45;;;;;;;-7.36;98.21;97822.06;4485290;31;20524;-75
2022/01/09 04:28:08;;;;;;;29.40;11.52;;;;;;;-7.45;98.87;97826.59;4484254;32;20410;-75
2022/01/09 04:30:36;;;;;;;26.17;11.50;;;;;;;-7.46;98.57;97820.69;4485377;31;20465;-75
2022/01/09 04:33:03;;;;;;;25.05;10.75;;;;;;;-7.53;98.29;97814.94;4485700;31;20111;-75
2022/01/09 04:35:31;;;;;;;26.12;12.30;;;;;;;-7.67;97.02;97825.53;4485494;32;20088;-75
2022/01/09 04:37:58;;;;;;;26.80;11.57;;;;;;;-7.76;97.15;97819.94;4485512;31;20175;-75
2022/01/09 04:40:25;;;;;;;33.65;12.65;;;;;;;-7.69;96.71;97814.59;4485664;31;20103;-75
2022/01/09 04:42:56;;;;;;;25.60;10.98;;;;;;;-7.71;96.79;97818.88;4485191;31;20423;-75
2022/01/09 04:45:25;;;;;;;25.33;11.68;;;;;;;-7.78;97.06;97812.34;4485392;31;20450;-75
2022/01/09 04:47:55;;;;;;;26.55;11.30;;;;;;;-7.90;97.62;97810.19;4485280;31;20092;-75
2022/01/09 04:50:28;;;;;;;29.30;11.68;;;;;;;-7.96;97.76;97810.34;4485100;31;20606;-75
2022/01/09 04:53:04;;;;;;;26.55;11.20;;;;;;;-7.92;97.79;97809.38;4485032;31;20084;-75
2022/01/09 04:55:33;;;;;;;29.48;11.63;;;;;;;-7.97;97.57;97808.69;4485253;31;20088;-75
2022/01/09 04:58:01;;;;;;;25.27;11.07;;;;;;;-7.89;97.01;97809.28;4485413;31;20139;-75
2022/01/09 05:00:28;;;;;;;31.40;11.50;;;;;;;-7.91;96.32;97803.44;4485125;31;20088;-75
2022/01/09 05:02:55;;;;;;;23.45;10.73;;;;;;;-7.97;96.35;97809.53;4485138;32;20138;-75
2022/01/09 05:05:23;;;;;;;29.58;13.13;;;;;;;-8.09;97.27;97805.63;4485195;31;20156;-75
2022/01/09 05:07:50;;;;;;;35.95;13.20;;;;;;;-8.14;98.05;97807.50;4485169;31;20096;-75
2022/01/09 05:10:17;;;;;;;34.28;12.13;;;;;;;-8.15;98.75;97808.34;4485458;31;20115;-75
2022/01/09 05:12:45;;;;;;;29.40;12.23;;;;;;;-8.10;98.49;97809.06;4483736;32;20193;-75
2022/01/09 05:15:14;;;;;;;31.52;12.23;;;;;;;-8.13;98.29;97816.78;4484896;31;20429;-75
2022/01/09 05:17:42;;;;;;;29.42;13.27;;;;;;;-8.14;98.54;97817.66;4484868;31;20092;-75
2022/01/09 05:20:10;;;;;;;34.30;14.07;;;;;;;-8.12;98.64;97815.88;4485201;32;20218;-75
2022/01/09 05:22:37;;;;;;;26.27;11.68;;;;;;;-8.15;99.28;97805.81;4485060;31;20088;-75
2022/01/09 05:25:08;;;;;;;33.42;13.10;;;;;;;-8.18;99.78;97812.72;4484920;31;20682;-75
2022/01/09 05:27:36;;;;;;;31.35;12.13;;;;;;;-8.16;100.00;97808.41;4485182;31;20230;-75
2022/01/09 05:30:05;;;;;;;26.83;11.57;;;;;;;-8.10;99.90;97813.31;4483765;32;20445;-75
2022/01/09 05:32:33;;;;;;;31.80;12.15;;;;;;;-8.10;99.45;97810.75;4484793;31;20496;-75
2022/01/09 05:35:00;;;;;;;30.75;12.50;;;;;;;-8.19;99.17;97806.78;4484976;31;20097;-75
2022/01/09 05:37:28;;;;;;;33.95;13.15;;;;;;;-8.21;99.41;97806.00;4484660;31;20093;-75
2022/01/09 05:39:55;;;;;;;32.72;12.82;;;;;;;-8.19;99.22;97796.63;4484743;31;20088;-75
2022/01/09 05:42:22;;;;;;;36.88;13.40;;;;;;;-8.20;99.54;97803.41;4484753;31;20101;-75
2022/01/09 05:44:49;;;;;;;37.38;14.85;;;;;;;-8.20;100.00;97794.97;4484558;31;20097;-75
2022/01/09 05:47:16;;;;;;;29.37;13.23;;;;;;;-8.22;100.00;97801.78;4484847;31;20127;-75
2022/01/09 05:49:44;;;;;;;38.00;15.95;;;;;;;-8.20;99.49;97798.31;4484686;31;20089;-75
2022/01/09 05:52:11;;;;;;;41.65;17.08;;;;;;;-8.22;98.84;97796.69;4483471;32;20096;-75
2022/01/09 05:54:38;;;;;;;41.85;15.52;;;;;;;-8.29;98.64;97792.69;4484810;31;20122;-75
2022/01/09 05:57:06;;;;;;;36.35;14.85;;;;;;;-8.21;99.38;97790.75;4483878;32;20145;-75
2022/01/09 05:59:34;;;;;;;35.45;14.87;;;;;;;-8.31;100.00;97784.28;4484691;31;20099;-75
2022/01/09 06:02:01;;;;;;;39.70;16.05;;;;;;;-8.39;100.00;97792.97;4484583;31;20123;-74
2022/01/09 06:04:28;;;;;;;44.58;16.27;;;;;;;-8.39;100.00;97787.88;4484495;31;20119;-75
2022/01/09 06:06:55;;;;;;;43.30;17.70;;;;;;;-8.29;100.00;97788.44;4484535;31;20092;-74
2022/01/09 06:09:22;;;;;;;41.55;17.25;;;;;;;-8.10;99.63;97786.19;4484303;31;20123;-74
2022/01/09 06:11:50;;;;;;;40.85;16.35;;;;;;;-8.08;99.48;97786.97;4484451;32;20164;-75
2022/01/09 06:14:17;;;;;;;39.50;16.23;;;;;;;-8.09;99.94;97785.31;4484283;31;20425;-75
2022/01/09 06:16:44;;;;;;;44.65;17.55;;;;;;;-8.24;99.40;97790.84;4484272;31;20127;-75
2022/01/09 06:19:11;;;;;;;40.53;15.70;;;;;;;-8.24;99.97;97790.84;4484304;31;20119;-75
2022/01/09 06:21:39;;;;;;;34.13;15.23;;;;;;;-8.25;100.00;97784.94;4484203;31;20103;-75
2022/01/09 06:24:06;;;;;;;40.05;15.38;;;;;;;-8.30;100.00;97783.41;4484210;31;20089;-75
2022/01/09 06:26:33;;;;;;;38.13;15.88;;;;;;;-8.17;100.00;97786.41;4484366;31;20213;-75
2022/01/09 06:29:00;;;;;;;44.88;17.58;;;;;;;-8.08;100.00;97786.97;4483888;31;20692;-75
2022/01/09 06:31:27;;;;;;;46.53;16.48;;;;;;;-7.99;100.00;97782.47;4484296;31;20092;-74
2022/01/09 06:33:55;;;;;;;42.72;17.23;;;;;;;-8.02;100.00;97785.97;4484024;31;20152;-75
2022/01/09 06:36:22;;;;;;;41.78;17.67;;;;;;;-8.00;100.00;97794.38;4484214;31;20462;-75
2022/01/09 06:38:49;;;;;;;45.70;16.77;;;;;;;-7.94;100.00;97798.44;4484047;31;20114;-75
2022/01/09 06:41:17;;;;;;;37.33;14.63;;;;;;;-7.87;100.00;97795.66;4483964;31;20096;-74
2022/01/09 06:43:44;;;;;;;42.20;15.50;;;;;;;-7.77;100.00;97796.19;4484006;31;20084;-75
2022/01/09 06:46:11;;;;;;;41.37;15.07;;;;;;;-7.64;100.00;97796.66;4483893;31;20105;-75
2022/01/09 06:48:39;;;;;;;39.28;15.27;;;;;;;-7.62;100.00;97788.97;4484083;32;20119;-75
2022/01/09 06:51:06;;;;;;;41.13;17.15;;;;;;;-7.87;100.00;97794.84;4483861;31;20096;-75
2022/01/09 06:53:33;;;;;;;39.10;15.88;;;;;;;-8.00;100.00;97791.00;4483638;31;20120;-75
2022/01/09 06:56:00;;;;;;;43.08;16.27;;;;;;;-7.82;100.00;97787.88;4483862;31;20474;-75
2022/01/09 06:58:28;;;;;;;39.15;15.73;;;;;;;-7.59;100.00;97786.34;4483776;31;20148;-75
2022/01/09 07:00:55;;;;;;;39.17;15.95;;;;;;;-7.37;100.00;97794.94;4483610;31;20513;-75
2022/01/09 07:03:22;;;;;;;36.80;14.75;;;;;;;-7.23;100.00;97791.13;4483548;31;20125;-75
2022/01/09 07:05:51;;;;;;;40.20;16.98;;;;;;;-7.10;100.00;97791.50;4483711;31;20097;-75
2022/01/09 07:08:18;;;;;;;39.00;15.68;;;;;;;-6.94;100.00;97792.66;4483656;31;20093;-75
2022/01/09 07:10:46;;;;;;;35.17;14.07;;;;;;;-6.69;100.00;97801.97;4485721;31;20104;-75
2022/01/09 07:13:18;;;;;;;36.70;15.50;;;;;;;-6.38;100.00;97801.72;4485752;31;20104;-75
2022/01/09 07:15:45;;;;;;;38.00;15.63;;;;;;;-6.37;100.00;97800.84;4485993;31;20123;-75
2022/01/09 07:18:12;;;;;;;41.65;15.75;;;;;;;-6.26;100.00;97798.72;4485787;31;20536;-75
2022/01/09 07:20:39;;;;;;;39.33;15.90;;;;;;;-6.09;100.00;97792.16;4485815;31;20131;-75
2022/01/09 07:23:06;;;;;;;41.75;18.35;;;;;;;-5.91;100.00;97801.62;4485899;31;20093;-75
2022/01/09 07:25:34;;;;;;;42.67;18.17;;;;;;;-5.90;100.00;97798.19;4485749;31;20462;-74
2022/01/09 07:28:02;;;;;;;37.83;16.37;;;;;;;-5.83;100.00;97798.78;4486143;31;20474;-75
2022/01/09 07:30:30;;;;;;;38.15;18.05;;;;;;;-5.73;100.00;97794.16;4485845;31;20195;-75
2022/01/09 07:32:57;;;;;;;40.45;17.20;;;;;;;-5.68;100.00;97794.81;4485696;31;20107;-75
2022/01/09 07:35:25;;;;;;;40.78;17.55;;;;;;;-5.57;100.00;97792.66;4485870;31;20113;-75
2022/01/09 07:37:53;;;;;;;42.40;17.55;;;;;;;-5.64;100.00;97775.94;4485719;31;20096;-75
2022/01/09 07:40:20;;;;;;;43.65;16.83;;;;;;;-5.55;100.00;97780.66;4485548;31;20088;-75
2022/01/09 07:42:48;;;;;;;43.87;17.60;;;;;;;-5.49;100.00;97771.94;4485646;31;20120;-75
2022/01/09 07:45:19;;;;;;;39.95;16.55;;;;;;;-5.52;100.00;97778.00;4485573;31;20504;-75
2022/01/09 07:47:46;;;;;;;48.03;17.48;;;;;;;-5.35;100.00;97776.47;4485893;31;20527;-75
2022/01/09 07:50:14;;;;;;;40.53;16.70;;;;;;;-5.33;100.00;97776.41;4485477;31;20401;-75
2022/01/09 07:52:42;;;;;;;39.80;17.25;;;;;;;-5.24;100.00;97771.78;4485723;31;20164;-75
2022/01/09 07:55:10;;;;;;;50.10;18.85;;;;;;;-5.11;100.00;97774.63;4485618;31;20092;-75
2022/01/09 07:57:37;;;;;;;44.03;17.08;;;;;;;-4.95;99.80;97768.87;4485679;31;20092;-75
2022/01/09 08:00:07;;;;;;;47.30;17.37;;;;;;;-4.92;99.66;97779.81;4485425;32;20134;-75
2022/01/09 08:02:39;;;;;;;55.17;17.80;;;;;;;-4.83;99.26;97779.41;4485662;31;20549;-75
2022/01/09 08:05:07;;;;;;;50.42;18.27;;;;;;;-4.85;99.19;97782.94;4485993;31;20104;-75
2022/01/09 08:07:34;;;;;;;41.42;17.00;;;;;;;-4.74;98.98;97772.25;4485501;31;20541;-75
2022/01/09 08:10:02;;;;;;;48.03;17.80;;;;;;;-4.60;98.31;97767.37;4485653;31;20495;-75
2022/01/09 08:12:36;;;;;;;43.67;18.70;;;;;;;-4.75;98.72;97768.00;4485698;32;20089;-75
2022/01/09 08:15:04;;;;;;;39.33;16.60;;;;;;;-4.62;98.62;97763.22;4485112;31;20165;-75
2022/01/09 08:17:31;;;;;;;44.80;18.00;;;;;;;-4.55;98.56;97764.59;4485467;31;20118;-75
2022/01/09 08:19:59;;;;;;;35.20;15.52;;;;;;;-4.54;98.36;97768.81;4484839;32;20576;-75
2022/01/09 08:22:29;;;;;;;42.10;17.80;;;;;;;-4.47;98.30;97758.25;4485440;31;20093;-75
2022/01/09 08:24:57;;;;;;;37.28;15.52;;;;;;;-4.42;97.86;97749.53;4485391;31;20140;-75
2022/01/09 08:27:24;;;;;;;47.35;17.87;;;;;;;-4.46;98.21;97754.78;4485445;31;20850;-75
2022/01/09 08:29:51;;;;;;;42.28;17.83;;;;;;;-4.27;97.33;97761.63;4485469;31;20093;-74
2022/01/09 08:32:18;;;;;;;37.75;16.20;;;;;;;-4.13;96.57;97769.50;4485471;31;20189;-75
2022/01/09 08:34:46;;;;;;;36.78;15.50;;;;;;;-4.11;97.17;97777.94;4485222;31;20092;-74
2022/01/09 08:37:13;;;;;;;45.80;18.02;;;;;;;-4.02;96.34;97779.25;4485312;31;20088;-75
2022/01/09 08:39:41;;;;;;;48.92;18.10;;;;;;;-3.81;95.50;97781.72;4485052;31;20093;-75
2022/01/09 08:42:09;;;;;;;41.40;16.80;;;;;;;-3.76;95.83;97785.69;4485438;31;20097;-75
2022/01/09 08:44:37;;;;;;;40.12;18.55;;;;;;;-3.51;94.88;97783.69;4485122;31;20092;-75
2022/01/09 08:47:05;;;;;;;46.37;18.77;;;;;;;-3.33;93.05;97787.09;4485216;31;20454;-75
2022/01/09 08:49:33;;;;;;;42.47;18.48;;;;;;;-3.37;92.76;97776.19;4485230;31;20111;-75
2022/01/09 08:52:00;;;;;;;38.33;16.50;;;;;;;-3.35;92.58;97778.69;4485246;31;20093;-75
2022/01/09 08:54:28;;;;;;;37.55;16.20;;;;;;;-3.45;92.75;97776.56;4485076;31;20092;-74
2022/01/09 08:56:56;;;;;;;35.13;15.98;;;;;;;-3.39;92.11;97776.25;4485174;31;20093;-74
2022/01/09 08:59:23;;;;;;;43.10;18.92;;;;;;;-3.36;91.87;97777.00;4485097;31;20164;-75
2022/01/09 09:01:50;;;;;;;50.22;19.20;;;;;;;-3.35;91.79;97771.81;4485057;31;20669;-75
2022/01/09 09:04:18;;;;;;;42.75;18.30;;;;;;;-3.19;91.66;97773.59;4485131;31;20114;-74
2022/01/09 09:06:45;;;;;;;51.85;18.65;;;;;;;-3.23;90.82;97770.38;4485114;31;20088;-74
2022/01/09 09:09:12;;;;;;;48.53;21.20;;;;;;;-3.05;90.81;97774.59;4485144;31;20080;-74
2022/01/09 09:11:40;;;;;;;52.30;20.70;;;;;;;-3.19;90.81;97773.59;4485164;32;20462;-75
2022/01/09 09:14:07;;;;;;;43.15;19.75;;;;;;;-3.01;91.12;97777.84;4485043;31;20119;-74
2022/01/09 09:16:34;;;;;;;44.67;18.45;;;;;;;-2.86;89.62;97791.63;4485025;31;20489;-74
2022/01/09 09:19:02;;;;;;;47.10;18.98;;;;;;;-2.76;89.63;97792.78;4484857;31;20123;-74
2022/01/09 09:21:29;;;;;;;42.95;18.98;;;;;;;-2.77;91.25;97796.28;4484815;31;20445;-75
2022/01/09 09:23:56;;;;;;;41.90;17.70;;;;;;;-2.67;91.42;97800.00;4484982;31;20095;-74
2022/01/09 09:26:23;;;;;;;44.20;18.95;;;;;;;-2.59;90.55;97801.34;4484896;31;20115;-74
2022/01/09 09:28:51;;;;;;;48.85;20.02;;;;;;;-2.51;88.67;97786.41;4485078;31;20097;-74
2022/01/09 09:31:18;;;;;;;48.75;20.35;;;;;;;-2.70;90.53;97795.03;4484457;31;20096;-74
2022/01/09 09:33:46;;;;;;;45.45;19.73;;;;;;;-2.57;90.58;97800.38;4484892;31;20433;-74
2022/01/09 09:36:13;;;;;;;41.45;18.73;;;;;;;-2.48;90.08;97800.78;4484893;31;20119;-74
2022/01/09 09:38:41;;;;;;;51.50;18.58;;;;;;;-2.45;89.29;97800.63;4485042;31;20111;-74
2022/01/09 09:41:08;;;;;;;46.67;20.65;;;;;;;-2.50;88.21;97795.75;4484714;32;20088;-74
2022/01/09 09:43:35;;;;;;;50.12;20.80;;;;;;;-2.52;89.34;97800.13;4484905;31;20092;-74
2022/01/09 09:46:03;;;;;;;56.13;20.98;;;;;;;-2.68;90.10;97800.94;4484697;31;20169;-74
2022/01/09 09:48:30;;;;;;;45.15;19.73;;;;;;;-2.45;89.93;97798.91;4482183;31;78031;-74
2022/01/09 09:50:58;;;;;;;45.70;19.02;;;;;;;-2.30;87.86;97802.44;4484568;31;20554;-74
2022/01/09 09:53:25;;;;;;;44.42;18.95;;;;;;;-2.19;88.83;97807.81;4484953;31;20091;-74
2022/01/09 09:55:53;;;;;;;43.30;17.92;;;;;;;-1.97;87.15;97804.94;4484605;31;20115;-74
2022/01/09 09:58:22;;;;;;;46.35;18.45;;;;;;;-1.96;86.84;97798.87;4484527;31;20119;-74
2022/01/09 10:00:53;;;;;;;43.60;18.27;;;;;;;-1.85;86.49;97807.72;4484606;31;20160;-74
2022/01/09 10:03:32;;;;;;;40.75;17.55;;;;;;;-2.03;88.13;97810.41;4484715;31;20461;-74
2022/01/09 10:06:00;;;;;;;44.65;19.12;;;;;;;-2.05;88.13;97816.50;4484915;31;20080;-74
2022/01/09 10:08:39;;;;;;;42.45;19.17;;;;;;;-1.69;87.73;97812.87;4484525;31;20139;-74
2022/01/09 10:11:17;;;;;;;46.05;20.12;;;;;;;-1.53;85.63;97818.81;4484333;31;20111;-74
2022/01/09 10:13:45;;;;;;;50.97;20.05;;;;;;;-1.64;86.92;97821.13;4484326;31;20170;-74
2022/01/09 10:16:13;;;;;;;52.53;21.10;;;;;;;-1.38;86.61;97809.41;4484194;31;20096;-74
2022/01/09 10:18:41;;;;;;;50.03;20.05;;;;;;;-1.29;85.86;97816.62;4484203;31;20088;-74
2022/01/09 10:21:12;;;;;;;40.78;19.67;;;;;;;-1.44;85.62;97820.03;4484108;31;20184;-74
2022/01/09 10:24:05;;;;;;;43.22;17.90;;;;;;;-1.31;85.26;97815.03;4484421;31;20137;-74
2022/01/09 10:26:35;;;;;;;49.25;19.77;;;;;;;-1.67;86.53;97801.59;4484177;31;20109;-74
2022/01/09 10:29:04;;;;;;;39.53;18.42;;;;;;;-1.93;88.27;97802.19;4484158;31;20081;-74
2022/01/09 10:31:42;;;;;;;51.65;21.10;;;;;;;-1.98;89.48;97807.56;4484165;32;20112;-74
2022/01/09 10:34:10;;;;;;;45.38;19.50;;;;;;;-1.90;88.53;97802.84;4484305;31;20100;-74
2022/01/09 10:36:51;;;;;;;43.40;18.80;;;;;;;-1.84;88.42;97799.13;4483933;31;20101;-74
2022/01/09 10:39:27;;;;;;;42.60;17.45;;;;;;;-1.83;88.72;97793.09;4484045;31;20080;-74
2022/01/09 10:41:56;;;;;;;41.55;20.02;;;;;;;-1.64;86.85;97786.00;4483974;31;20140;-74
2022/01/09 10:44:27;;;;;;;46.37;21.15;;;;;;;-1.73;86.81;97778.00;4485599;31;20096;-74
2022/01/09 10:46:57;;;;;;;54.25;19.98;;;;;;;-1.59;85.99;97779.78;4485987;31;20105;-74
2022/01/09 10:49:41;;;;;;;50.15;19.55;;;;;;;-1.49;86.21;97766.34;4485926;31;20080;-74
2022/01/09 10:52:25;;;;;;;41.72;18.90;;;;;;;-1.50;85.56;97763.88;4486231;32;20533;-74
2022/01/09 10:54:57;;;;;;;46.30;18.95;;;;;;;-1.35;84.65;97763.00;4486046;31;20115;-74
2022/01/09 10:57:27;;;;;;;39.67;17.58;;;;;;;-1.24;83.46;97762.41;4486136;31;20088;-74
2022/01/09 11:00:04;;;;;;;44.17;18.08;;;;;;;-1.19;84.37;97762.13;4486009;31;20084;-74
2022/01/09 11:02:32;;;;;;;43.08;16.40;;;;;;;-1.02;82.11;97761.97;4485874;31;20115;-74
2022/01/09 11:04:59;;;;;;;38.90;17.65;;;;;;;-0.86;81.25;97753.34;4486200;31;20100;-74
2022/01/09 11:07:26;;;;;;;39.22;17.23;;;;;;;-0.72;80.67;97753.37;4485905;31;20084;-74
2022/01/09 11:09:55;;;;;;;40.12;15.80;;;;;;;-0.52;80.29;97753.91;4484859;32;20093;-74
2022/01/09 11:12:25;;;;;;;41.45;17.42;;;;;;;-0.65;79.82;97746.09;4486030;31;20123;-74
2022/01/09 11:14:53;;;;;;;32.25;17.08;;;;;;;-0.59;80.31;97749.16;4484632;32;20122;-74
2022/01/09 11:17:21;;;;;;;39.00;16.55;;;;;;;-0.63;79.11;97752.81;4484733;32;20092;-74
2022/01/09 11:19:49;;;;;;;44.60;18.10;;;;;;;-0.59;78.88;97751.72;4485702;31;20128;-74
2022/01/09 11:22:16;;;;;;;39.70;17.42;;;;;;;-0.89;79.65;97759.53;4484557;32;20128;-74
2022/01/09 11:25:05;;;;;;;40.65;16.70;;;;;;;-0.82;81.27;97755.63;4485898;31;20569;-74